PWSweather.com
Personal Weather Stations
Station Observations
KAZTUCSO57
Countryside Manor, Tucson, AZ 85742

Countryside ManorTucson, AZ 85742

Lat: 32.3692, Lon: -111.066

Elevation: 2307

Station Type: Davis VP Pro+ 6163

http://frogville.us

Latest ConditionsUpdated 2:50:00 PM MST Tuesday, Sep 30, 2014
Currently Today's Max Today's Min Today's Average
Temperature 92.7°F33.7°C 92.7°F33.7°C 57.2°F14.0°C 71.6°F22.0°C
Dew Point 36.5°F2.5°C 46.3°F7.9°C 34.6°F1.4°C 41.9°F5.5°C
Winds 2.6 mph W4.2 kmh W 3.6 mph SW5.8 kmh SW - 0.9 mph 1.4 kmh
Wind Gusts 4.0 mph6.4 kmh 7.0 mph11.3 kmh - -
Humidity 14% 59% 13% 39%
Pressure 29.81 in1009.5 mb 29.91 in1012.9 mb 29.81 in1009.5 mb -
Hour Temp Dew Point Humidity Winds Wind Gusts Pressure Precip Precip Rate Daily Precip Total
02:50 PM 92.7°F33.7°C 36.5°F2.5°C 14% 2.6 mph W4.2 kmh W 4.0 mph6.4 kmh 29.81 in1009.5 mb 0.00 in0.0 mm 0.00 in/hr0.0 mm/hr 0.00 in0.0 mm
02:40 PM 92.4°F33.6°C 36.3°F2.4°C 14% 1.3 mph NW2.1 kmh NW 5.0 mph8.0 kmh 29.81 in1009.5 mb 0.00 in0.0 mm 0.00 in/hr0.0 mm/hr 0.00 in0.0 mm
02:30 PM 92.6°F33.7°C 34.6°F1.4°C 13% 0.1 mph NW0.2 kmh NW -- 29.81 in1009.5 mb 0.00 in0.0 mm 0.00 in/hr0.0 mm/hr 0.00 in0.0 mm
02:20 PM 92.7°F33.7°C 36.5°F2.5°C 14% 2.6 mph W4.2 kmh W 7.0 mph11.3 kmh 29.82 in1009.8 mb 0.00 in0.0 mm 0.00 in/hr0.0 mm/hr 0.00 in0.0 mm
02:10 PM 92.4°F33.6°C 36.3°F2.4°C 14% 3.3 mph WSW5.3 kmh WSW 6.0 mph9.7 kmh 29.82 in1009.8 mb 0.00 in0.0 mm 0.00 in/hr0.0 mm/hr 0.00 in0.0 mm
02:00 PM 92.4°F33.6°C 36.3°F2.4°C 14% 1.1 mph S1.8 kmh S 3.0 mph4.8 kmh 29.82 in1009.8 mb 0.00 in0.0 mm 0.00 in/hr0.0 mm/hr 0.00 in0.0 mm
01:50 PM 92.2°F33.4°C 36.1°F2.3°C 14% 1.6 mph SW2.6 kmh SW 6.0 mph9.7 kmh 29.82 in1009.8 mb 0.00 in0.0 mm 0.00 in/hr0.0 mm/hr 0.00 in0.0 mm
01:40 PM 92.2°F33.4°C 36.1°F2.3°C 14% 2.5 mph NNE4.0 kmh NNE 3.0 mph4.8 kmh 29.82 in1009.8 mb 0.00 in0.0 mm 0.00 in/hr0.0 mm/hr 0.00 in0.0 mm
01:30 PM 92.1°F33.4°C 36.0°F2.2°C 14% 2.1 mph N3.4 kmh N 3.0 mph4.8 kmh 29.83 in1010.2 mb 0.00 in0.0 mm 0.00 in/hr0.0 mm/hr 0.00 in0.0 mm
01:20 PM 91.9°F33.3°C 37.6°F3.1°C 15% 3.6 mph SW5.8 kmh SW 6.0 mph9.7 kmh 29.83 in1010.2 mb 0.00 in0.0 mm 0.00 in/hr0.0 mm/hr 0.00 in0.0 mm
01:10 PM 91.2°F32.9°C 37.1°F2.8°C 15% 1.9 mph N3.1 kmh N 4.0 mph6.4 kmh 29.84 in1010.5 mb 0.00 in0.0 mm 0.00 in/hr0.0 mm/hr 0.00 in0.0 mm
01:00 PM 92.0°F33.3°C 37.7°F3.2°C 15% 0.7 mph S1.1 kmh S 2.0 mph3.2 kmh 29.84 in1010.5 mb 0.00 in0.0 mm 0.00 in/hr0.0 mm/hr 0.00 in0.0 mm
12:50 PM 92.3°F33.5°C 38.0°F3.3°C 15% 3.0 mph SW4.8 kmh SW 5.0 mph8.0 kmh 29.85 in1010.8 mb 0.00 in0.0 mm 0.00 in/hr0.0 mm/hr 0.00 in0.0 mm
12:40 PM 91.8°F33.2°C 37.6°F3.1°C 15% 2.5 mph WSW4.0 kmh WSW 4.0 mph6.4 kmh 29.85 in1010.8 mb 0.00 in0.0 mm 0.00 in/hr0.0 mm/hr 0.00 in0.0 mm
12:30 PM 91.0°F32.8°C 37.0°F2.8°C 15% 1.2 mph W1.9 kmh W 1.0 mph1.6 kmh 29.86 in1011.2 mb 0.00 in0.0 mm 0.00 in/hr0.0 mm/hr 0.00 in0.0 mm
12:20 PM 89.8°F32.1°C 36.0°F2.2°C 15% 2.8 mph W4.5 kmh W 6.0 mph9.7 kmh 29.86 in1011.2 mb 0.00 in0.0 mm 0.00 in/hr0.0 mm/hr 0.00 in0.0 mm
12:10 PM 88.9°F31.6°C 35.3°F1.8°C 15% 2.2 mph SW3.5 kmh SW 5.0 mph8.0 kmh 29.86 in1011.2 mb 0.00 in0.0 mm 0.00 in/hr0.0 mm/hr 0.00 in0.0 mm
12:00 PM 87.4°F30.8°C 37.3°F2.9°C 17% 0.6 mph NW1.0 kmh NW 2.0 mph3.2 kmh 29.86 in1011.2 mb 0.00 in0.0 mm 0.00 in/hr0.0 mm/hr 0.00 in0.0 mm
11:50 AM 86.0°F30.0°C 37.6°F3.1°C 18% 0.7 mph SSW1.1 kmh SSW -- 29.87 in1011.5 mb 0.00 in0.0 mm 0.00 in/hr0.0 mm/hr 0.00 in0.0 mm
11:40 AM 85.7°F29.8°C 38.7°F3.7°C 19% Calm Calm 1.0 mph1.6 kmh 29.87 in1011.5 mb 0.00 in0.0 mm 0.00 in/hr0.0 mm/hr 0.00 in0.0 mm
11:30 AM 85.8°F29.9°C 40.1°F4.5°C 20% 1.3 mph ESE2.1 kmh ESE 3.0 mph4.8 kmh 29.87 in1011.5 mb 0.00 in0.0 mm 0.00 in/hr0.0 mm/hr 0.00 in0.0 mm
11:20 AM 85.0°F29.4°C 39.4°F4.1°C 20% 0.2 mph NE0.3 kmh NE 2.0 mph3.2 kmh 29.87 in1011.5 mb 0.00 in0.0 mm 0.00 in/hr0.0 mm/hr 0.00 in0.0 mm
11:10 AM 83.9°F28.8°C 38.5°F3.6°C 20% 2.5 mph SW4.0 kmh SW 3.0 mph4.8 kmh 29.88 in1011.9 mb 0.00 in0.0 mm 0.00 in/hr0.0 mm/hr 0.00 in0.0 mm
11:00 AM 83.1°F28.4°C 41.5°F5.3°C 23% 0.7 mph S1.1 kmh S 3.0 mph4.8 kmh 29.88 in1011.9 mb 0.00 in0.0 mm 0.00 in/hr0.0 mm/hr 0.00 in0.0 mm
10:50 AM 82.5°F28.1°C 43.1°F6.2°C 25% 1.1 mph NE1.8 kmh NE 3.0 mph4.8 kmh 29.88 in1011.9 mb 0.00 in0.0 mm 0.00 in/hr0.0 mm/hr 0.00 in0.0 mm
10:40 AM 81.9°F27.7°C 42.6°F5.9°C 25% 0.6 mph E1.0 kmh E 2.0 mph3.2 kmh 29.88 in1011.9 mb 0.00 in0.0 mm 0.00 in/hr0.0 mm/hr 0.00 in0.0 mm
10:30 AM 81.5°F27.5°C 44.3°F6.8°C 27% 0.8 mph ENE1.3 kmh ENE 5.0 mph8.0 kmh 29.89 in1012.2 mb 0.00 in0.0 mm 0.00 in/hr0.0 mm/hr 0.00 in0.0 mm
10:20 AM 80.8°F27.1°C 43.7°F6.5°C 27% 1.4 mph ESE2.3 kmh ESE 4.0 mph6.4 kmh 29.89 in1012.2 mb 0.00 in0.0 mm 0.00 in/hr0.0 mm/hr 0.00 in0.0 mm
10:10 AM 80.2°F26.8°C 45.1°F7.3°C 29% 1.1 mph SW1.8 kmh SW 4.0 mph6.4 kmh 29.90 in1012.5 mb 0.00 in0.0 mm 0.00 in/hr0.0 mm/hr 0.00 in0.0 mm
10:00 AM 79.7°F26.5°C 44.6°F7.0°C 29% 1.5 mph SE2.4 kmh SE 3.0 mph4.8 kmh 29.90 in1012.5 mb 0.00 in0.0 mm 0.00 in/hr0.0 mm/hr 0.00 in0.0 mm
09:50 AM 78.7°F25.9°C 45.5°F7.5°C 31% 1.0 mph NE1.6 kmh NE 1.0 mph1.6 kmh 29.90 in1012.5 mb 0.00 in0.0 mm 0.00 in/hr0.0 mm/hr 0.00 in0.0 mm
09:40 AM 78.0°F25.6°C 45.7°F7.6°C 32% 0.7 mph E1.1 kmh E 2.0 mph3.2 kmh 29.90 in1012.5 mb 0.00 in0.0 mm 0.00 in/hr0.0 mm/hr 0.00 in0.0 mm
09:30 AM 76.7°F24.8°C 46.3°F7.9°C 34% 2.1 mph SE3.4 kmh SE 4.0 mph6.4 kmh 29.91 in1012.9 mb 0.00 in0.0 mm 0.00 in/hr0.0 mm/hr 0.00 in0.0 mm
09:20 AM 75.7°F24.3°C 46.1°F7.8°C 35% 0.6 mph SSE1.0 kmh SSE 2.0 mph3.2 kmh 29.91 in1012.9 mb 0.00 in0.0 mm 0.00 in/hr0.0 mm/hr 0.00 in0.0 mm
09:10 AM 74.9°F23.8°C 45.4°F7.4°C 35% 1.7 mph SSE2.7 kmh SSE 3.0 mph4.8 kmh 29.90 in1012.5 mb 0.00 in0.0 mm 0.00 in/hr0.0 mm/hr 0.00 in0.0 mm
09:00 AM 73.8°F23.2°C 45.9°F7.7°C 37% 0.8 mph ESE1.3 kmh ESE 2.0 mph3.2 kmh 29.91 in1012.9 mb 0.00 in0.0 mm 0.00 in/hr0.0 mm/hr 0.00 in0.0 mm
08:50 AM 73.0°F22.8°C 45.9°F7.7°C 38% 1.3 mph E2.1 kmh E 2.0 mph3.2 kmh 29.91 in1012.9 mb 0.00 in0.0 mm 0.00 in/hr0.0 mm/hr 0.00 in0.0 mm
08:40 AM 72.1°F22.3°C 45.8°F7.7°C 39% 1.8 mph NNE2.9 kmh NNE 4.0 mph6.4 kmh 29.91 in1012.9 mb 0.00 in0.0 mm 0.00 in/hr0.0 mm/hr 0.00 in0.0 mm
08:30 AM 71.2°F21.8°C 45.0°F7.2°C 39% 1.7 mph E2.7 kmh E 3.0 mph4.8 kmh 29.91 in1012.9 mb 0.00 in0.0 mm 0.00 in/hr0.0 mm/hr 0.00 in0.0 mm
08:20 AM 70.3°F21.3°C 44.8°F7.1°C 40% 1.4 mph NE2.3 kmh NE 3.0 mph4.8 kmh 29.91 in1012.9 mb 0.00 in0.0 mm 0.00 in/hr0.0 mm/hr 0.00 in0.0 mm
08:10 AM 69.1°F20.6°C 45.0°F7.2°C 42% 2.5 mph NNE4.0 kmh NNE 3.0 mph4.8 kmh 29.91 in1012.9 mb 0.00 in0.0 mm 0.00 in/hr0.0 mm/hr 0.00 in0.0 mm
08:00 AM 67.7°F19.8°C 45.0°F7.2°C 44% 1.5 mph NNE2.4 kmh NNE 3.0 mph4.8 kmh 29.91 in1012.9 mb 0.00 in0.0 mm 0.00 in/hr0.0 mm/hr 0.00 in0.0 mm
07:50 AM 66.3°F19.1°C 45.5°F7.5°C 47% 0.7 mph NNE1.1 kmh NNE 1.0 mph1.6 kmh 29.91 in1012.9 mb 0.00 in0.0 mm 0.00 in/hr0.0 mm/hr 0.00 in0.0 mm
07:40 AM 64.8°F18.2°C 44.7°F7.1°C 48% 1.0 mph NNE1.6 kmh NNE 2.0 mph3.2 kmh 29.91 in1012.9 mb 0.00 in0.0 mm 0.00 in/hr0.0 mm/hr 0.00 in0.0 mm
07:30 AM 63.1°F17.3°C 44.2°F6.8°C 50% 0.2 mph NNE0.3 kmh NNE 1.0 mph1.6 kmh 29.91 in1012.9 mb 0.00 in0.0 mm 0.00 in/hr0.0 mm/hr 0.00 in0.0 mm
07:20 AM 61.2°F16.2°C 44.4°F6.9°C 54% Calm Calm -- 29.91 in1012.9 mb 0.00 in0.0 mm 0.00 in/hr0.0 mm/hr 0.00 in0.0 mm
07:10 AM 59.7°F15.4°C 44.0°F6.7°C 56% Calm Calm 1.0 mph1.6 kmh 29.90 in1012.5 mb 0.00 in0.0 mm 0.00 in/hr0.0 mm/hr 0.00 in0.0 mm
07:00 AM 58.3°F14.6°C 43.6°F6.4°C 58% 0.4 mph NNE0.6 kmh NNE 1.0 mph1.6 kmh 29.90 in1012.5 mb 0.00 in0.0 mm 0.00 in/hr0.0 mm/hr 0.00 in0.0 mm
06:50 AM 57.5°F14.2°C 42.8°F6.0°C 58% 0.1 mph NNE0.2 kmh NNE 1.0 mph1.6 kmh 29.90 in1012.5 mb 0.00 in0.0 mm 0.00 in/hr0.0 mm/hr 0.00 in0.0 mm
06:40 AM 57.3°F14.1°C 42.6°F5.9°C 58% 0.1 mph NNE0.2 kmh NNE 1.0 mph1.6 kmh 29.89 in1012.2 mb 0.00 in0.0 mm 0.00 in/hr0.0 mm/hr 0.00 in0.0 mm
06:30 AM 57.2°F14.0°C 42.5°F5.8°C 58% 0.4 mph NNE0.6 kmh NNE 1.0 mph1.6 kmh 29.89 in1012.2 mb 0.00 in0.0 mm 0.00 in/hr0.0 mm/hr 0.00 in0.0 mm
06:20 AM 57.2°F14.0°C 42.5°F5.8°C 58% 0.3 mph NE0.5 kmh NE -- 29.89 in1012.2 mb 0.00 in0.0 mm 0.00 in/hr0.0 mm/hr 0.00 in0.0 mm
06:10 AM 57.2°F14.0°C 42.6°F5.9°C 58% 0.7 mph NE1.1 kmh NE 3.0 mph4.8 kmh 29.89 in1012.2 mb 0.00 in0.0 mm 0.00 in/hr0.0 mm/hr 0.00 in0.0 mm
06:00 AM 57.4°F14.1°C 43.2°F6.2°C 59% 0.5 mph NE0.8 kmh NE 1.0 mph1.6 kmh 29.89 in1012.2 mb 0.00 in0.0 mm 0.00 in/hr0.0 mm/hr 0.00 in0.0 mm
05:50 AM 57.7°F14.3°C 43.5°F6.4°C 59% Calm Calm -- 29.89 in1012.2 mb 0.00 in0.0 mm 0.00 in/hr0.0 mm/hr 0.00 in0.0 mm
05:40 AM 57.8°F14.3°C 43.2°F6.2°C 58% 0.2 mph NE0.3 kmh NE 1.0 mph1.6 kmh 29.89 in1012.2 mb 0.00 in0.0 mm 0.00 in/hr0.0 mm/hr 0.00 in0.0 mm
05:30 AM 58.0°F14.4°C 42.8°F6.0°C 57% Calm Calm -- 29.88 in1011.9 mb 0.00 in0.0 mm 0.00 in/hr0.0 mm/hr 0.00 in0.0 mm
05:20 AM 58.2°F14.6°C 43.0°F6.1°C 57% 0.6 mph NE1.0 kmh NE 2.0 mph3.2 kmh 29.88 in1011.9 mb 0.00 in0.0 mm 0.00 in/hr0.0 mm/hr 0.00 in0.0 mm
05:10 AM 58.5°F14.7°C 42.9°F6.1°C 56% 0.3 mph NE0.5 kmh NE 1.0 mph1.6 kmh 29.88 in1011.9 mb 0.00 in0.0 mm 0.00 in/hr0.0 mm/hr 0.00 in0.0 mm
05:00 AM 58.9°F14.9°C 43.2°F6.2°C 56% Calm Calm -- 29.88 in1011.9 mb 0.00 in0.0 mm 0.00 in/hr0.0 mm/hr 0.00 in0.0 mm
04:50 AM 59.1°F15.1°C 42.9°F6.1°C 55% 1.1 mph NE1.8 kmh NE 2.0 mph3.2 kmh 29.88 in1011.9 mb 0.00 in0.0 mm 0.00 in/hr0.0 mm/hr 0.00 in0.0 mm
04:40 AM 59.4°F15.2°C 42.7°F5.9°C 54% Calm Calm -- 29.88 in1011.9 mb 0.00 in0.0 mm 0.00 in/hr0.0 mm/hr 0.00 in0.0 mm
04:30 AM 59.5°F15.3°C 42.8°F6.0°C 54% 0.3 mph NE0.5 kmh NE 1.0 mph1.6 kmh 29.88 in1011.9 mb 0.00 in0.0 mm 0.00 in/hr0.0 mm/hr 0.00 in0.0 mm
04:20 AM 59.6°F15.3°C 42.9°F6.1°C 54% Calm Calm -- 29.88 in1011.9 mb 0.00 in0.0 mm 0.00 in/hr0.0 mm/hr 0.00 in0.0 mm
04:10 AM 59.7°F15.4°C 43.0°F6.1°C 54% 0.1 mph NE0.2 kmh NE 1.0 mph1.6 kmh 29.88 in1011.9 mb 0.00 in0.0 mm 0.00 in/hr0.0 mm/hr 0.00 in0.0 mm
04:00 AM 59.8°F15.4°C 42.6°F5.9°C 53% Calm Calm -- 29.88 in1011.9 mb 0.00 in0.0 mm 0.00 in/hr0.0 mm/hr 0.00 in0.0 mm
03:50 AM 59.9°F15.5°C 42.7°F5.9°C 53% Calm Calm 1.0 mph1.6 kmh 29.88 in1011.9 mb 0.00 in0.0 mm 0.00 in/hr0.0 mm/hr 0.00 in0.0 mm
03:40 AM 60.2°F15.7°C 43.0°F6.1°C 53% 0.1 mph NE0.2 kmh NE 1.0 mph1.6 kmh 29.88 in1011.9 mb 0.00 in0.0 mm 0.00 in/hr0.0 mm/hr 0.00 in0.0 mm
03:30 AM 60.4°F15.8°C 43.2°F6.2°C 53% 0.2 mph NE0.3 kmh NE 1.0 mph1.6 kmh 29.88 in1011.9 mb 0.00 in0.0 mm 0.00 in/hr0.0 mm/hr 0.00 in0.0 mm
03:20 AM 60.8°F16.0°C 43.1°F6.2°C 52% 0.4 mph NE0.6 kmh NE 2.0 mph3.2 kmh 29.88 in1011.9 mb 0.00 in0.0 mm 0.00 in/hr0.0 mm/hr 0.00 in0.0 mm
03:10 AM 61.1°F16.2°C 42.8°F6.0°C 51% 0.7 mph NE1.1 kmh NE 2.0 mph3.2 kmh 29.88 in1011.9 mb 0.00 in0.0 mm 0.00 in/hr0.0 mm/hr 0.00 in0.0 mm
03:00 AM 61.5°F16.4°C 42.7°F5.9°C 50% 0.6 mph NE1.0 kmh NE 2.0 mph3.2 kmh 29.88 in1011.9 mb 0.00 in0.0 mm 0.00 in/hr0.0 mm/hr 0.00 in0.0 mm
02:50 AM 61.8°F16.6°C 42.4°F5.8°C 49% Calm Calm -- 29.89 in1012.2 mb 0.00 in0.0 mm 0.00 in/hr0.0 mm/hr 0.00 in0.0 mm
02:40 AM 62.0°F16.7°C 42.6°F5.9°C 49% Calm Calm -- 29.89 in1012.2 mb 0.00 in0.0 mm 0.00 in/hr0.0 mm/hr 0.00 in0.0 mm
02:30 AM 62.0°F16.7°C 42.6°F5.9°C 49% Calm Calm 1.0 mph1.6 kmh 29.89 in1012.2 mb 0.00 in0.0 mm 0.00 in/hr0.0 mm/hr 0.00 in0.0 mm
02:20 AM 61.9°F16.6°C 43.0°F6.1°C 50% 0.1 mph NE0.2 kmh NE 1.0 mph1.6 kmh 29.89 in1012.2 mb 0.00 in0.0 mm 0.00 in/hr0.0 mm/hr 0.00 in0.0 mm
02:10 AM 61.9°F16.6°C 43.0°F6.1°C 50% 2.2 mph NE3.5 kmh NE 3.0 mph4.8 kmh 29.89 in1012.2 mb 0.00 in0.0 mm 0.00 in/hr0.0 mm/hr 0.00 in0.0 mm
02:00 AM 62.1°F16.7°C 43.2°F6.2°C 50% 0.3 mph N0.5 kmh N 1.0 mph1.6 kmh 29.89 in1012.2 mb 0.00 in0.0 mm 0.00 in/hr0.0 mm/hr 0.00 in0.0 mm
01:50 AM 62.3°F16.8°C 42.9°F6.1°C 49% 0.5 mph N0.8 kmh N 1.0 mph1.6 kmh 29.89 in1012.2 mb 0.00 in0.0 mm 0.00 in/hr0.0 mm/hr 0.00 in0.0 mm
01:40 AM 62.5°F16.9°C 43.6°F6.4°C 50% 0.3 mph N0.5 kmh N 1.0 mph1.6 kmh 29.90 in1012.5 mb 0.00 in0.0 mm 0.00 in/hr0.0 mm/hr 0.00 in0.0 mm
01:30 AM 62.6°F17.0°C 43.7°F6.5°C 50% Calm Calm 2.0 mph3.2 kmh 29.90 in1012.5 mb 0.00 in0.0 mm 0.00 in/hr0.0 mm/hr 0.00 in0.0 mm
01:20 AM 62.7°F17.1°C 43.3°F6.3°C 49% 1.0 mph N1.6 kmh N 2.0 mph3.2 kmh 29.89 in1012.2 mb 0.00 in0.0 mm 0.00 in/hr0.0 mm/hr 0.00 in0.0 mm
01:10 AM 63.1°F17.3°C 44.2°F6.8°C 50% 0.1 mph N0.2 kmh N 1.0 mph1.6 kmh 29.89 in1012.2 mb 0.00 in0.0 mm 0.00 in/hr0.0 mm/hr 0.00 in0.0 mm
01:00 AM 63.2°F17.3°C 43.2°F6.2°C 48% 0.6 mph N1.0 kmh N 1.0 mph1.6 kmh 29.89 in1012.2 mb 0.00 in0.0 mm 0.00 in/hr0.0 mm/hr 0.00 in0.0 mm
12:50 AM 63.3°F17.4°C 43.3°F6.3°C 48% 0.9 mph N1.4 kmh N 2.0 mph3.2 kmh 29.89 in1012.2 mb 0.00 in0.0 mm 0.00 in/hr0.0 mm/hr 0.00 in0.0 mm
12:40 AM 63.4°F17.4°C 42.8°F6.0°C 47% 0.2 mph N0.3 kmh N -- 29.89 in1012.2 mb 0.00 in0.0 mm 0.00 in/hr0.0 mm/hr 0.00 in0.0 mm
12:30 AM 63.5°F17.5°C 42.9°F6.1°C 47% 0.5 mph N0.8 kmh N 1.0 mph1.6 kmh 29.88 in1011.9 mb 0.00 in0.0 mm 0.00 in/hr0.0 mm/hr 0.00 in0.0 mm
12:20 AM 63.6°F17.6°C 43.0°F6.1°C 47% Calm Calm -- 29.88 in1011.9 mb 0.00 in0.0 mm 0.00 in/hr0.0 mm/hr 0.00 in0.0 mm
12:10 AM 63.6°F17.6°C 43.0°F6.1°C 47% 0.4 mph N0.6 kmh N 1.0 mph1.6 kmh 29.88 in1011.9 mb 0.00 in0.0 mm 0.00 in/hr0.0 mm/hr 0.00 in0.0 mm
12:00 AM 63.8°F17.7°C 42.6°F5.9°C 46% 0.9 mph N1.4 kmh N 3.0 mph4.8 kmh 29.88 in1011.9 mb 0.00 in0.0 mm 0.00 in/hr0.0 mm/hr 0.00 in0.0 mm